createdAt,value
2018-07-08T11:59:01.945Z,23.17
2018-07-08T12:00:01.916Z,23.45
2018-07-08T12:00:44.339Z,23.19
2018-07-08T12:01:38.307Z,23.32
2018-07-08T12:02:38.081Z,23.60
2018-07-08T12:03:38.073Z,23.71
2018-07-08T12:04:29.518Z,23.01
2018-07-08T12:04:59.524Z,23.29
2018-07-08T12:05:29.493Z,23.47
2018-07-08T12:05:59.479Z,23.54
2018-07-08T12:06:29.503Z,23.55
2018-07-08T12:06:59.449Z,23.54
2018-07-08T12:07:29.431Z,23.50
2018-07-08T12:07:59.673Z,23.45
2018-07-08T12:08:29.411Z,23.38
2018-07-08T12:08:59.428Z,23.34
2018-07-08T12:09:29.374Z,23.29
2018-07-08T12:09:59.359Z,23.25
2018-07-08T12:10:29.346Z,23.20
2018-07-08T12:10:59.332Z,23.19
2018-07-08T12:11:29.316Z,23.18
2018-07-08T12:11:59.301Z,23.17
2018-07-08T12:12:29.289Z,23.14
2018-07-08T12:12:59.273Z,23.13
2018-07-08T12:13:29.259Z,23.12
2018-07-08T12:13:59.244Z,23.12
2018-07-08T12:14:29.289Z,23.13
2018-07-08T12:14:59.220Z,23.15
2018-07-08T12:15:29.206Z,23.19
2018-07-08T12:15:59.194Z,23.25
2018-07-08T12:16:29.183Z,23.32
2018-07-08T12:16:59.167Z,23.40
2018-07-08T12:17:29.154Z,23.44
2018-07-08T12:18:07.106Z,22.85
2018-07-08T12:18:47.471Z,22.87
2018-07-08T12:19:47.258Z,23.34
2018-07-08T12:20:19.582Z,23.52
2018-07-08T12:21:33.161Z,23.78
2018-07-08T12:24:02.204Z,25.95
2018-07-08T12:25:02.200Z,25.89
2018-07-08T12:26:02.187Z,25.30
2018-07-08T12:27:02.169Z,24.67
2018-07-08T12:28:02.154Z,24.17
2018-07-08T12:29:02.133Z,23.84
2018-07-08T12:30:02.114Z,23.62
2018-07-08T12:31:02.093Z,23.51
2018-07-08T12:32:02.070Z,23.45
2018-07-08T12:33:02.045Z,23.43
2018-07-08T12:34:02.019Z,23.40
2018-07-08T12:35:01.993Z,23.44
2018-07-08T12:36:01.968Z,23.47
2018-07-08T12:37:01.933Z,23.53
2018-07-08T12:38:01.898Z,23.56
2018-07-08T12:39:01.871Z,23.60
2018-07-08T12:40:01.836Z,23.62
2018-07-08T12:41:01.801Z,23.62
2018-07-08T12:42:01.774Z,23.55
2018-07-08T12:43:01.743Z,23.44
2018-07-08T12:44:01.724Z,23.32
2018-07-08T12:45:01.687Z,23.30
2018-07-08T12:46:01.655Z,23.36
2018-07-08T12:47:01.653Z,23.38
2018-07-08T12:48:01.603Z,23.39
2018-07-08T12:49:01.573Z,23.39
2018-07-08T12:50:01.545Z,23.37
2018-07-08T12:51:01.512Z,23.35
2018-07-08T12:52:01.483Z,23.35
2018-07-08T12:53:01.505Z,23.38
2018-07-08T12:54:01.429Z,23.53
2018-07-08T12:55:01.405Z,23.72
2018-07-08T12:56:01.375Z,23.93
2018-07-08T12:57:01.346Z,24.09
2018-07-08T12:58:01.317Z,24.20
2018-07-08T12:59:01.314Z,24.29
2018-07-08T13:00:01.263Z,24.37
2018-07-08T13:01:01.230Z,24.44
2018-07-08T13:02:01.208Z,24.50
2018-07-08T13:03:01.175Z,24.54
2018-07-08T13:04:01.146Z,24.55
2018-07-08T13:05:01.117Z,24.59
2018-07-08T13:06:01.088Z,24.60
2018-07-08T13:07:01.058Z,24.62
2018-07-08T13:08:01.031Z,24.63
2018-07-08T13:09:01.002Z,24.64
2018-07-08T13:10:00.970Z,24.67
2018-07-08T13:11:00.947Z,24.70
2018-07-08T13:12:00.917Z,24.73
2018-07-08T13:13:00.890Z,24.73
2018-07-08T13:14:00.865Z,24.71
2018-07-08T13:15:00.841Z,24.70
2018-07-08T13:16:00.815Z,24.71
2018-07-08T13:17:00.787Z,24.75
2018-07-08T13:18:00.768Z,24.76
2018-07-08T13:19:00.734Z,24.72
2018-07-08T17:29:32.221Z,23.68
2018-07-08T17:30:32.135Z,23.97
2018-07-08T17:31:32.068Z,24.20
2018-07-08T17:32:31.992Z,24.35
2018-07-08T17:33:32.029Z,24.44
2018-07-08T17:34:31.803Z,24.53
2018-07-08T17:35:31.699Z,24.62
2018-07-08T17:36:31.595Z,24.70
2018-07-08T17:37:31.484Z,24.79
2018-07-08T17:38:31.372Z,24.88
2018-07-08T17:39:31.261Z,24.97
2018-07-08T17:40:31.147Z,25.07
2018-07-08T17:41:31.029Z,25.17
2018-07-08T17:42:30.912Z,25.22
2018-07-08T17:43:30.791Z,25.26
2018-07-08T17:44:30.667Z,25.29
2018-07-08T17:45:30.547Z,25.35
2018-07-08T17:46:30.500Z,25.37
2018-07-08T17:47:30.285Z,25.37
2018-07-08T17:48:30.159Z,25.35
2018-07-08T17:49:30.030Z,25.32
2018-07-08T17:50:29.895Z,25.31
